Time;durP1;ratioP1;P1;durP2;ratioP2;P2;SDS_P1;SDS_P2;PMS_P1;PMS_P2;Temp;Humidity;BMP_temperature;BMP_pressure;BME280_temperature;BME280_humidity;BME280_pressure;Samples;Min_cycle;Max_cycle;Signal;HPM_P1;HPM_P2
2021/10/21 00:00:18;;;;;;;1.10;1.00;;;17.20;99.90;;;;;;4163623;28;20237;-79
2021/10/21 00:02:19;;;;;;;1.17;1.00;;;17.20;99.90;;;;;;4158431;28;20239;-78
2021/10/21 00:04:21;;;;;;;1.50;1.10;;;17.10;99.90;;;;;;4149561;28;20708;-78
2021/10/21 00:06:23;;;;;;;2.03;1.30;;;17.10;99.90;;;;;;4162512;28;20234;-78
2021/10/21 00:08:25;;;;;;;2.27;1.20;;;17.10;99.90;;;;;;4164838;28;20208;-78
2021/10/21 00:10:27;;;;;;;1.17;1.07;;;17.10;99.90;;;;;;4163147;28;20273;-78
2021/10/21 00:12:28;;;;;;;1.83;1.00;;;17.10;99.90;;;;;;4165105;28;20227;-78
2021/10/21 00:14:32;;;;;;;1.80;1.20;;;17.10;99.90;;;;;;4165187;28;20222;-78
2021/10/21 00:16:33;;;;;;;1.90;1.30;;;17.10;99.90;;;;;;4164664;28;20215;-78
2021/10/21 00:18:35;;;;;;;1.37;1.20;;;17.00;99.90;;;;;;4165014;28;20219;-78
2021/10/21 00:20:37;;;;;;;6.00;2.13;;;17.10;99.90;;;;;;4159592;28;20211;-78
2021/10/21 00:22:39;;;;;;;1.10;1.00;;;17.00;99.90;;;;;;4164208;28;20203;-78
2021/10/21 00:24:41;;;;;;;1.83;1.10;;;17.00;99.90;;;;;;4165041;28;20231;-78
2021/10/21 00:26:42;;;;;;;6.83;1.10;;;17.00;99.90;;;;;;4163605;28;20207;-78
2021/10/21 00:28:44;;;;;;;1.90;1.10;;;17.00;99.90;;;;;;4158936;28;20208;-78
2021/10/21 00:30:47;;;;;;;1.40;1.10;;;17.00;99.90;;;;;;4148032;28;20214;-78
2021/10/21 00:32:49;;;;;;;2.30;1.33;;;16.90;99.90;;;;;;4160452;28;20234;-78
2021/10/21 00:34:50;;;;;;;1.73;1.20;;;16.90;99.90;;;;;;4157360;28;20566;-78
2021/10/21 00:36:52;;;;;;;3.80;1.50;;;16.90;99.90;;;;;;4147220;28;20208;-78
2021/10/21 00:38:54;;;;;;;1.57;1.20;;;16.90;99.90;;;;;;4161640;28;20205;-78
2021/10/21 00:40:55;;;;;;;1.90;1.37;;;16.90;99.90;;;;;;4164709;28;20664;-78
2021/10/21 00:42:57;;;;;;;1.77;1.30;;;16.90;99.90;;;;;;4163872;28;20207;-78
2021/10/21 00:44:59;;;;;;;2.50;1.40;;;16.90;99.90;;;;;;4164929;28;20293;-78
2021/10/21 00:47:02;;;;;;;1.53;1.40;;;16.90;99.90;;;;;;4163384;28;20257;-78
2021/10/21 00:49:04;;;;;;;1.80;1.50;;;16.80;99.90;;;;;;4163184;28;20207;-78
2021/10/21 00:51:10;;;;;;;1.67;1.50;;;17.00;99.90;;;;;;4160584;28;20711;-79
2021/10/21 00:53:13;;;;;;;2.17;1.37;;;16.80;99.90;;;;;;4148559;28;20215;-78
2021/10/21 00:55:16;;;;;;;1.93;1.50;;;16.80;99.90;;;;;;4164196;28;20752;-78
2021/10/21 00:57:18;;;;;;;4.80;1.70;;;16.80;99.90;;;;;;4163799;28;20211;-78
2021/10/21 00:59:20;;;;;;;2.03;1.60;;;16.80;99.90;;;;;;4164223;28;20218;-78
2021/10/21 01:01:24;;;;;;;1.43;1.30;;;16.80;99.90;;;;;;4162996;28;20273;-78
2021/10/21 01:03:28;;;;;;;2.20;1.50;;;16.80;99.90;;;;;;4162746;28;20215;-78
2021/10/21 01:05:30;;;;;;;1.67;1.50;;;16.70;99.90;;;;;;4164246;28;20207;-78
2021/10/21 01:07:31;;;;;;;1.60;1.47;;;16.80;99.90;;;;;;4164124;28;20269;-78
2021/10/21 01:09:34;;;;;;;3.63;1.63;;;16.70;99.90;;;;;;4153097;28;20208;-78
2021/10/21 01:11:36;;;;;;;2.57;1.67;;;16.70;99.90;;;;;;4163242;28;20692;-77
2021/10/21 01:13:38;;;;;;;2.30;1.60;;;16.70;99.90;;;;;;4164408;28;20275;-77
2021/10/21 01:15:39;;;;;;;1.97;1.60;;;16.70;99.90;;;;;;4163994;28;20643;-77
2021/10/21 01:17:41;;;;;;;2.30;1.87;;;16.70;99.90;;;;;;4161243;28;20250;-77
2021/10/21 01:19:45;;;;;;;2.77;1.63;;;16.60;99.90;;;;;;4163948;28;20211;-77
2021/10/21 01:21:49;;;;;;;1.83;1.43;;;16.60;99.90;;;;;;4162880;28;20233;-77
2021/10/21 01:23:51;;;;;;;4.33;1.70;;;16.60;99.90;;;;;;4163243;28;20233;-77
2021/10/21 01:25:53;;;;;;;5.23;1.90;;;16.60;99.90;;;;;;4159751;28;20262;-78
2021/10/21 01:27:55;;;;;;;7.70;2.27;;;16.50;99.90;;;;;;4150939;28;20585;-78
2021/10/21 01:29:57;;;;;;;2.57;1.63;;;16.60;99.90;;;;;;4159973;28;20206;-77
2021/10/21 01:31:59;;;;;;;2.43;1.50;;;16.60;99.90;;;;;;4163263;28;20224;-77
2021/10/21 01:34:00;;;;;;;4.40;1.47;;;16.40;99.90;;;;;;4161774;28;20292;-77
2021/10/21 01:36:03;;;;;;;2.20;1.33;;;16.30;99.90;;;;;;4157333;28;20263;-78
2021/10/21 01:38:06;;;;;;;2.73;1.13;;;16.20;99.90;;;;;;4162645;28;20647;-78
2021/10/21 01:40:10;;;;;;;6.07;1.93;;;16.10;99.90;;;;;;4163683;28;20209;-78
2021/10/21 01:42:12;;;;;;;2.50;1.20;;;16.10;99.90;;;;;;4160204;28;20320;-78
2021/10/21 01:44:14;;;;;;;2.83;1.03;;;16.00;99.90;;;;;;4157514;28;20612;-78
2021/10/21 01:46:15;;;;;;;6.00;1.97;;;16.00;99.90;;;;;;4153119;28;20206;-78
2021/10/21 01:48:17;;;;;;;1.60;1.00;;;16.00;99.90;;;;;;4163871;28;20221;-78
2021/10/21 01:50:20;;;;;;;2.20;1.13;;;16.00;99.90;;;;;;4161168;28;20221;-78
2021/10/21 01:52:22;;;;;;;1.23;0.90;;;16.00;99.90;;;;;;4163580;28;20667;-78
2021/10/21 01:54:25;;;;;;;3.53;0.73;;;16.00;99.90;;;;;;4146811;28;20271;-78
2021/10/21 01:56:27;;;;;;;1.80;1.00;;;16.00;99.90;;;;;;4162818;28;20210;-78
2021/10/21 01:58:28;;;;;;;2.60;0.80;;;16.00;99.90;;;;;;4164163;28;20211;-78
2021/10/21 02:00:30;;;;;;;1.70;0.97;;;16.00;99.90;;;;;;4163606;28;20209;-78
2021/10/21 02:02:32;;;;;;;2.83;0.80;;;16.00;99.90;;;;;;4153620;28;20223;-78
2021/10/21 02:04:33;;;;;;;2.57;0.70;;;16.00;99.90;;;;;;4163825;28;20230;-78
2021/10/21 02:06:35;;;;;;;0.80;0.60;;;16.00;99.90;;;;;;4163427;28;20263;-78
2021/10/21 02:08:37;;;;;;;1.03;0.70;;;16.00;99.90;;;;;;4162943;28;20214;-78
2021/10/21 02:10:40;;;;;;;1.37;0.57;;;16.00;99.90;;;;;;4163137;28;20213;-78
2021/10/21 02:12:43;;;;;;;1.07;0.73;;;16.00;99.90;;;;;;4163072;28;20208;-79
2021/10/21 02:14:44;;;;;;;0.63;0.63;;;16.00;99.90;;;;;;4162036;28;20664;-78
2021/10/21 02:16:46;;;;;;;0.70;0.60;;;16.00;99.90;;;;;;4163564;28;20236;-78
2021/10/21 02:18:48;;;;;;;2.43;0.60;;;16.00;99.90;;;;;;4163552;28;20295;-78
2021/10/21 02:20:49;;;;;;;0.60;0.60;;;16.00;99.90;;;;;;4162104;28;20236;-78
2021/10/21 02:22:51;;;;;;;0.70;0.50;;;16.00;99.90;;;;;;4151319;28;20218;-78
2021/10/21 02:24:54;;;;;;;1.17;0.67;;;16.10;99.90;;;;;;4162803;28;20567;-78
2021/10/21 02:26:58;;;;;;;0.60;0.50;;;16.10;99.90;;;;;;4163333;28;20225;-78
2021/10/21 02:28:59;;;;;;;0.67;0.50;;;16.10;99.90;;;;;;4163207;28;20750;-78
2021/10/21 02:31:01;;;;;;;0.70;0.60;;;16.10;99.90;;;;;;4159432;28;20226;-79
2021/10/21 02:33:03;;;;;;;1.47;0.70;;;16.20;99.90;;;;;;4163776;28;20275;-78
2021/10/21 02:35:05;;;;;;;0.50;0.50;;;16.10;99.90;;;;;;4156418;28;20209;-78
2021/10/21 02:37:07;;;;;;;0.67;0.63;;;16.10;99.90;;;;;;4163288;28;20224;-78
2021/10/21 02:39:09;;;;;;;0.70;0.70;;;16.10;99.90;;;;;;4164257;28;20210;-78
2021/10/21 02:41:10;;;;;;;0.77;0.50;;;16.00;99.90;;;;;;4164217;28;20598;-78
2021/10/21 02:43:13;;;;;;;1.07;0.70;;;16.10;99.90;;;;;;4156042;28;20268;-78
2021/10/21 02:45:15;;;;;;;0.93;0.60;;;16.00;99.90;;;;;;4166530;28;20300;-78
2021/10/21 02:47:17;;;;;;;1.77;0.60;;;16.10;99.90;;;;;;4166095;28;20213;-78
2021/10/21 02:49:19;;;;;;;2.10;0.50;;;16.00;99.90;;;;;;4166310;28;20285;-78
2021/10/21 02:51:20;;;;;;;1.20;0.70;;;16.10;99.90;;;;;;4164669;28;20301;-78
2021/10/21 02:53:22;;;;;;;0.70;0.60;;;16.10;99.90;;;;;;4166687;28;20220;-78
2021/10/21 02:55:24;;;;;;;1.27;0.70;;;16.00;99.90;;;;;;4165096;28;20209;-78
2021/10/21 02:57:26;;;;;;;1.60;0.80;;;16.10;99.90;;;;;;4165159;28;20280;-78
2021/10/21 02:59:29;;;;;;;2.53;0.70;;;16.10;99.90;;;;;;4152880;28;20219;-78
2021/10/21 03:01:30;;;;;;;1.17;0.70;;;16.10;99.90;;;;;;4165970;28;20301;-78
2021/10/21 03:03:32;;;;;;;1.10;0.70;;;16.10;99.90;;;;;;4166129;28;20218;-78
2021/10/21 03:05:34;;;;;;;0.97;0.80;;;16.10;99.90;;;;;;4154335;28;20647;-78
2021/10/21 03:07:36;;;;;;;1.10;0.70;;;16.10;99.90;;;;;;4163907;28;20295;-79
2021/10/21 03:09:37;;;;;;;1.37;0.80;;;16.10;99.90;;;;;;4166091;28;20213;-78
2021/10/21 03:11:39;;;;;;;0.77;0.73;;;16.10;99.90;;;;;;4165903;28;20283;-78
2021/10/21 03:13:41;;;;;;;1.23;0.80;;;16.10;99.90;;;;;;4165713;28;20217;-78
2021/10/21 03:15:44;;;;;;;0.70;0.70;;;16.00;99.90;;;;;;4161133;28;20330;-78
2021/10/21 03:17:45;;;;;;;3.77;0.90;;;16.00;99.90;;;;;;4150372;28;20264;-78
2021/10/21 03:19:47;;;;;;;1.13;0.80;;;16.00;99.90;;;;;;4152308;28;20203;-78
2021/10/21 03:21:49;;;;;;;0.97;0.77;;;16.00;99.90;;;;;;4165146;28;20568;-79
2021/10/21 03:23:51;;;;;;;0.97;0.80;;;16.00;99.90;;;;;;4165466;28;20268;-78
2021/10/21 03:25:52;;;;;;;1.87;0.90;;;16.00;99.90;;;;;;4161119;28;20232;-78
2021/10/21 03:27:54;;;;;;;1.83;0.70;;;15.90;99.90;;;;;;4166365;28;20631;-78
2021/10/21 03:29:56;;;;;;;1.27;0.70;;;16.00;99.90;;;;;;4165316;28;20214;-78
2021/10/21 03:31:59;;;;;;;1.30;0.80;;;15.90;99.90;;;;;;4164818;28;20283;-78
2021/10/21 03:34:01;;;;;;;1.03;0.70;;;15.90;99.90;;;;;;4165797;28;20286;-78
2021/10/21 03:36:02;;;;;;;1.20;0.63;;;15.90;99.90;;;;;;4161025;28;20215;-79
2021/10/21 03:38:04;;;;;;;1.10;0.70;;;15.90;99.90;;;;;;4165891;28;20239;-78
2021/10/21 03:40:07;;;;;;;1.70;0.90;;;15.90;99.90;;;;;;4165496;28;20209;-78
2021/10/21 03:42:09;;;;;;;1.40;0.90;;;15.90;99.90;;;;;;4164543;28;20234;-78
2021/10/21 03:44:11;;;;;;;0.80;0.80;;;15.90;99.90;;;;;;4163870;28;20261;-78
2021/10/21 03:46:13;;;;;;;3.07;0.93;;;15.90;99.90;;;;;;4164839;28;20268;-78
2021/10/21 03:48:16;;;;;;;1.83;0.80;;;15.80;99.90;;;;;;4165490;28;20208;-78
2021/10/21 03:50:18;;;;;;;1.50;0.90;;;15.90;99.90;;;;;;4165167;28;20581;-79
2021/10/21 03:52:20;;;;;;;0.73;0.70;;;15.80;99.90;;;;;;4164433;28;20233;-78
2021/10/21 03:54:22;;;;;;;1.10;0.93;;;15.80;99.90;;;;;;4165223;28;20208;-78
2021/10/21 03:56:24;;;;;;;1.10;0.80;;;15.80;99.90;;;;;;4154227;28;20210;-78
2021/10/21 03:58:26;;;;;;;0.87;0.80;;;15.80;99.90;;;;;;4162850;28;20251;-78
2021/10/21 04:00:27;;;;;;;1.03;0.87;;;15.80;99.90;;;;;;4163525;28;20209;-78
2021/10/21 04:02:29;;;;;;;0.97;0.87;;;15.80;99.90;;;;;;4159819;28;20278;-78
2021/10/21 04:04:32;;;;;;;1.50;0.70;;;15.80;99.90;;;;;;4165498;28;20252;-78
2021/10/21 04:06:34;;;;;;;0.97;0.80;;;15.80;99.90;;;;;;4164930;28;20274;-78
2021/10/21 04:08:35;;;;;;;2.07;0.70;;;15.80;99.90;;;;;;4165077;28;20689;-78
2021/10/21 04:10:37;;;;;;;1.53;0.70;;;15.80;99.90;;;;;;4159709;28;20213;-78
2021/10/21 04:12:39;;;;;;;1.13;0.80;;;15.80;99.90;;;;;;4165012;28;20204;-78
2021/10/21 04:14:41;;;;;;;1.23;0.83;;;15.80;99.90;;;;;;4165040;28;20233;-78
2021/10/21 04:16:43;;;;;;;0.70;0.70;;;15.80;99.90;;;;;;4164204;28;20218;-78
2021/10/21 04:18:44;;;;;;;5.20;1.07;;;15.70;99.90;;;;;;4158334;28;20210;-78
2021/10/21 04:20:49;;;;;;;0.80;0.80;;;15.70;99.90;;;;;;4161436;28;20204;-78
2021/10/21 04:22:51;;;;;;;1.00;0.70;;;15.70;99.90;;;;;;4165599;28;20216;-78
2021/10/21 04:24:52;;;;;;;1.30;0.90;;;15.70;99.90;;;;;;4164391;28;20246;-78
2021/10/21 04:26:54;;;;;;;1.10;0.80;;;15.60;99.90;;;;;;4162548;28;20259;-78
2021/10/21 04:28:56;;;;;;;1.10;0.70;;;15.60;99.90;;;;;;4160787;28;20247;-78
2021/10/21 04:30:57;;;;;;;1.67;0.80;;;15.50;99.90;;;;;;4162996;28;20611;-79
2021/10/21 04:32:59;;;;;;;1.17;0.90;;;15.50;99.90;;;;;;4161069;28;20212;-79
2021/10/21 04:35:01;;;;;;;1.43;1.00;;;15.50;99.90;;;;;;4154163;28;20618;-79
2021/10/21 04:37:04;;;;;;;1.00;0.90;;;15.40;99.90;;;;;;4158850;28;20252;-78
2021/10/21 04:39:05;;;;;;;1.13;0.90;;;15.40;99.90;;;;;;4155915;28;20219;-78
2021/10/21 04:41:07;;;;;;;1.30;1.00;;;15.30;99.90;;;;;;4158618;28;20232;-78
2021/10/21 04:43:09;;;;;;;1.63;1.23;;;15.20;99.90;;;;;;4155875;28;20211;-78
2021/10/21 04:45:11;;;;;;;1.57;1.27;;;15.10;99.90;;;;;;4151785;28;20228;-79
2021/10/21 04:47:13;;;;;;;1.90;0.87;;;15.10;99.90;;;;;;4163050;28;20217;-78
2021/10/21 04:49:15;;;;;;;2.67;1.00;;;15.00;99.90;;;;;;4164415;28;20263;-78
2021/10/21 04:51:16;;;;;;;1.20;1.00;;;14.90;99.90;;;;;;4178393;23;20591;-80
2021/10/21 04:53:19;;;;;;;1.13;1.00;;;14.90;99.90;;;;;;4165251;28;20199;-80
2021/10/21 04:55:21;;;;;;;1.50;0.90;;;14.80;99.90;;;;;;4155874;28;20204;-79
2021/10/21 04:57:23;;;;;;;1.40;1.13;;;14.80;99.90;;;;;;4160583;28;20270;-79
2021/10/21 04:59:25;;;;;;;0.97;0.87;;;14.70;99.90;;;;;;4166071;28;20602;-79
2021/10/21 05:01:26;;;;;;;1.40;1.10;;;14.70;99.90;;;;;;4163322;28;20238;-78
2021/10/21 05:03:28;;;;;;;1.43;1.20;;;14.60;99.90;;;;;;4156943;28;20211;-80
2021/10/21 05:05:30;;;;;;;1.77;1.20;;;14.50;99.90;;;;;;4150108;28;20748;-79
2021/10/21 05:07:32;;;;;;;3.37;1.77;;;14.30;99.90;;;;;;4160770;28;20214;-79
2021/10/21 05:09:35;;;;;;;2.23;1.50;;;14.30;99.90;;;;;;4158458;28;20212;-80
2021/10/21 05:11:37;;;;;;;3.27;1.50;;;14.20;99.90;;;;;;4159471;28;20239;-79
2021/10/21 05:13:38;;;;;;;4.40;1.93;;;14.10;99.90;;;;;;4164123;28;20238;-80
2021/10/21 05:15:41;;;;;;;8.03;2.00;;;14.00;99.90;;;;;;4163447;28;20217;-83
2021/10/21 05:17:42;;;;;;;7.83;2.10;;;13.80;99.90;;;;;;4163451;28;20306;-86
2021/10/21 05:19:44;;;;;;;4.37;1.40;;;13.70;99.90;;;;;;4163403;28;20291;-82
2021/10/21 05:21:46;;;;;;;5.20;1.10;;;13.40;99.90;;;;;;4159122;28;20231;-83
2021/10/21 05:23:47;;;;;;;0.83;0.60;;;13.00;99.90;;;;;;4156704;28;20335;-83
2021/10/21 05:25:50;;;;;;;3.00;0.77;;;12.60;99.90;;;;;;4158714;28;20239;-81
2021/10/21 05:27:52;;;;;;;1.00;0.60;;;12.40;99.90;;;;;;4154600;28;20214;-82
2021/10/21 05:29:54;;;;;;;2.00;0.90;;;12.10;99.90;;;;;;4159975;28;20687;-82
2021/10/21 05:31:56;;;;;;;2.73;0.77;;;11.90;99.90;;;;;;4157884;28;20594;-82
2021/10/21 05:33:57;;;;;;;1.50;0.80;;;11.80;99.90;;;;;;4160884;28;20217;-82
2021/10/21 05:35:59;;;;;;;3.33;1.03;;;11.80;99.90;;;;;;4159658;28;20215;-82
2021/10/21 05:38:01;;;;;;;5.27;0.97;;;11.70;99.90;;;;;;4161727;28;20228;-81
2021/10/21 05:40:03;;;;;;;5.77;1.20;;;11.70;99.90;;;;;;4161426;28;20220;-81
2021/10/21 05:42:06;;;;;;;3.07;0.80;;;11.70;99.90;;;;;;4160699;28;20233;-81
2021/10/21 05:44:08;;;;;;;4.30;1.10;;;11.70;99.90;;;;;;4159233;28;20517;-80
2021/10/21 05:46:10;;;;;;;2.87;0.70;;;11.70;99.90;;;;;;4157706;28;20703;-81
2021/10/21 05:48:13;;;;;;;4.97;0.90;;;11.90;99.90;;;;;;4156631;28;20229;-81
2021/10/21 05:50:15;;;;;;;5.03;1.17;;;11.70;99.90;;;;;;4156689;28;20221;-81
2021/10/21 05:52:19;;;;;;;1.37;0.90;;;11.80;99.90;;;;;;4156480;28;20278;-80
2021/10/21 05:54:21;;;;;;;3.33;1.00;;;11.70;99.90;;;;;;4161524;28;20657;-81
2021/10/21 05:56:23;;;;;;;3.80;0.70;;;11.80;99.90;;;;;;4156423;28;20265;-80
2021/10/21 05:58:26;;;;;;;1.80;0.70;;;11.80;99.90;;;;;;4155089;28;20690;-80
2021/10/21 06:00:28;;;;;;;1.80;0.80;;;11.80;99.90;;;;;;4157544;28;20213;-80
2021/10/21 06:02:29;;;;;;;4.80;0.77;;;11.70;99.90;;;;;;4160919;28;20228;-80
2021/10/21 06:04:31;;;;;;;3.03;0.60;;;11.70;99.90;;;;;;4159994;28;20263;-80
2021/10/21 06:06:36;;;;;;;3.57;0.80;;;11.70;99.90;;;;;;4153946;28;20233;-80
2021/10/21 06:08:38;;;;;;;4.03;0.90;;;11.60;99.90;;;;;;4152043;28;20853;-80
2021/10/21 06:10:40;;;;;;;2.63;0.53;;;11.60;99.90;;;;;;4158128;28;20208;-80
2021/10/21 06:12:43;;;;;;;3.20;0.70;;;11.50;99.90;;;;;;4154897;28;20242;-80
2021/10/21 06:14:46;;;;;;;1.77;0.60;;;11.50;99.90;;;;;;4147135;28;20276;-80
2021/10/21 06:16:49;;;;;;;4.93;0.87;;;11.50;99.90;;;;;;4161876;28;20211;-80
2021/10/21 06:18:50;;;;;;;3.23;0.60;;;11.40;99.90;;;;;;4164423;28;20260;-80
2021/10/21 06:20:52;;;;;;;3.33;0.60;;;11.40;99.90;;;;;;4160614;28;20268;-80
2021/10/21 06:22:55;;;;;;;1.27;0.50;;;11.40;99.90;;;;;;4153189;28;20269;-80
2021/10/21 06:24:57;;;;;;;2.43;0.70;;;11.30;99.90;;;;;;4147281;28;20241;-80
2021/10/21 06:26:58;;;;;;;3.37;0.87;;;11.30;99.90;;;;;;4161865;28;20221;-80
2021/10/21 06:29:00;;;;;;;3.70;0.77;;;11.30;99.90;;;;;;4162465;28;20638;-81
2021/10/21 06:31:03;;;;;;;2.20;0.87;;;11.20;99.90;;;;;;4163166;28;20209;-80
2021/10/21 06:33:05;;;;;;;2.57;0.70;;;11.20;99.90;;;;;;4165027;28;20218;-80
2021/10/21 06:35:10;;;;;;;3.83;0.90;;;11.20;99.90;;;;;;4154123;28;20222;-80
2021/10/21 06:37:12;;;;;;;2.10;0.50;;;11.20;99.90;;;;;;4148442;28;20296;-80
2021/10/21 06:39:14;;;;;;;1.80;0.53;;;11.30;99.90;;;;;;4162462;28;20213;-80
2021/10/21 06:41:16;;;;;;;4.90;0.70;;;11.20;99.90;;;;;;4164599;28;20238;-80
2021/10/21 06:43:18;;;;;;;2.57;0.70;;;11.30;99.90;;;;;;4158017;28;20471;-80
2021/10/21 06:45:20;;;;;;;2.20;0.70;;;11.30;99.90;;;;;;4163492;28;20222;-80
2021/10/21 06:47:23;;;;;;;6.83;0.60;;;11.30;99.90;;;;;;4165759;28;20569;-80
2021/10/21 06:49:26;;;;;;;1.40;0.50;;;11.30;99.90;;;;;;4164327;28;20213;-80
2021/10/21 06:51:28;;;;;;;2.93;0.63;;;11.30;99.90;;;;;;4161535;28;20271;-80
2021/10/21 06:53:30;;;;;;;3.77;0.60;;;11.30;99.90;;;;;;4164423;28;20264;-80
2021/10/21 06:55:31;;;;;;;0.80;0.60;;;11.30;99.90;;;;;;4164237;28;20218;-80
2021/10/21 06:57:33;;;;;;;1.60;0.50;;;11.30;99.90;;;;;;4163386;28;21064;-79
2021/10/21 06:59:35;;;;;;;9.00;0.80;;;11.40;99.90;;;;;;4162369;28;20211;-79
2021/10/21 07:01:36;;;;;;;3.03;0.70;;;11.40;99.90;;;;;;4160091;28;20239;-79
2021/10/21 07:03:39;;;;;;;2.40;0.50;;;11.40;99.90;;;;;;4163790;28;20218;-79
2021/10/21 07:05:42;;;;;;;1.87;0.60;;;11.40;99.90;;;;;;4166115;28;20222;-79
2021/10/21 07:07:44;;;;;;;1.40;0.40;;;11.40;99.90;;;;;;4169168;28;20214;-79
2021/10/21 07:09:46;;;;;;;1.47;0.50;;;11.50;99.90;;;;;;4169711;28;20233;-79
2021/10/21 07:11:48;;;;;;;3.23;0.60;;;11.50;99.90;;;;;;4169551;28;20260;-79
2021/10/21 07:13:50;;;;;;;3.23;0.83;;;11.50;99.90;;;;;;4165937;28;20211;-80
2021/10/21 07:15:51;;;;;;;2.70;0.40;;;11.50;99.90;;;;;;4166918;28;20214;-79
2021/10/21 07:17:53;;;;;;;4.37;0.60;;;11.60;99.90;;;;;;4163542;28;20891;-79
2021/10/21 07:19:56;;;;;;;1.53;0.40;;;11.60;99.90;;;;;;4159920;28;20625;-79
2021/10/21 07:21:58;;;;;;;2.20;0.60;;;11.60;99.90;;;;;;4158934;28;20325;-79
2021/10/21 07:24:00;;;;;;;0.93;0.40;;;11.60;99.90;;;;;;4163133;28;20218;-79
2021/10/21 07:26:01;;;;;;;1.57;0.37;;;11.70;99.90;;;;;;4162981;28;20718;-79
2021/10/21 07:28:04;;;;;;;3.43;0.60;;;11.70;99.90;;;;;;4160341;28;20549;-79
2021/10/21 07:30:06;;;;;;;3.20;0.77;;;11.70;99.90;;;;;;4159605;28;20207;-79
2021/10/21 07:32:08;;;;;;;0.77;0.50;;;11.70;99.90;;;;;;4159046;28;20234;-79
2021/10/21 07:34:09;;;;;;;3.27;0.60;;;11.70;99.90;;;;;;4160096;28;20215;-79
2021/10/21 07:36:13;;;;;;;1.60;0.50;;;11.80;99.90;;;;;;4155767;28;20211;-79
2021/10/21 07:38:14;;;;;;;4.80;0.57;;;11.90;99.90;;;;;;4161431;28;20282;-80
2021/10/21 07:40:16;;;;;;;2.73;0.53;;;11.90;99.90;;;;;;4159722;28;20237;-79
2021/10/21 07:42:18;;;;;;;1.77;0.50;;;11.90;99.90;;;;;;4152844;28;20231;-79
2021/10/21 07:44:21;;;;;;;3.37;0.50;;;12.00;99.90;;;;;;4150651;28;20480;-78
2021/10/21 07:46:22;;;;;;;4.20;0.53;;;12.10;99.90;;;;;;4154729;28;20234;-79
2021/10/21 07:48:24;;;;;;;2.60;0.30;;;12.10;99.90;;;;;;4162231;28;20666;-78
2021/10/21 07:50:26;;;;;;;4.07;0.43;;;12.20;99.90;;;;;;4162603;28;20219;-79
2021/10/21 07:52:29;;;;;;;5.77;0.77;;;12.30;99.90;;;;;;4162102;28;20239;-78
2021/10/21 07:54:31;;;;;;;1.30;0.50;;;12.30;99.90;;;;;;4162780;28;20644;-79
2021/10/21 07:56:33;;;;;;;0.30;0.30;;;12.30;99.90;;;;;;4165584;28;20214;-78
2021/10/21 07:58:34;;;;;;;3.63;0.60;;;12.20;99.90;;;;;;4164890;28;20267;-78
2021/10/21 08:00:38;;;;;;;3.73;0.40;;;12.20;99.90;;;;;;4163998;28;20274;-78
2021/10/21 08:02:41;;;;;;;2.50;0.80;;;12.20;99.90;;;;;;4150383;28;20262;-77
2021/10/21 08:04:45;;;;;;;3.90;0.73;;;12.10;99.90;;;;;;4161457;28;20672;-77
2021/10/21 08:06:48;;;;;;;3.73;0.70;;;12.10;99.90;;;;;;4160724;28;20230;-79
2021/10/21 08:08:51;;;;;;;4.47;0.50;;;12.10;99.90;;;;;;4152626;28;20250;-78
2021/10/21 08:10:53;;;;;;;0.47;0.30;;;12.20;99.90;;;;;;4159491;28;20218;-78
2021/10/21 08:12:55;;;;;;;1.90;0.50;;;12.20;99.90;;;;;;4160086;28;20211;-79
2021/10/21 08:14:56;;;;;;;4.03;0.60;;;12.20;99.90;;;;;;4160947;28;20607;-79
2021/10/21 08:16:59;;;;;;;2.30;0.50;;;12.30;99.90;;;;;;4160845;28;20673;-79
2021/10/21 08:19:02;;;;;;;5.73;0.60;;;12.60;99.90;;;;;;4160101;28;20215;-79
2021/10/21 08:21:04;;;;;;;4.00;0.50;;;12.60;99.90;;;;;;4159384;28;20305;-79
2021/10/21 08:23:05;;;;;;;3.10;0.57;;;12.60;99.90;;;;;;4160931;28;20210;-79
2021/10/21 08:25:10;;;;;;;1.90;0.60;;;12.60;99.90;;;;;;4161043;28;20597;-79
2021/10/21 08:27:12;;;;;;;4.53;0.50;;;12.70;99.90;;;;;;4160300;28;20778;-79
2021/10/21 08:29:14;;;;;;;1.23;0.60;;;12.70;99.90;;;;;;4158046;28;20226;-79
2021/10/21 08:31:16;;;;;;;3.40;0.70;;;12.70;99.90;;;;;;4160663;28;20242;-79
2021/10/21 08:33:18;;;;;;;2.63;0.80;;;12.70;99.90;;;;;;4160868;28;20211;-79
2021/10/21 08:35:20;;;;;;;4.13;1.30;;;12.70;99.90;;;;;;4153945;28;20211;-79
2021/10/21 08:37:22;;;;;;;5.17;1.00;;;12.80;99.90;;;;;;4161003;28;20265;-79
2021/10/21 08:39:24;;;;;;;1.80;0.40;;;12.80;99.90;;;;;;4160726;28;20210;-79
2021/10/21 08:41:28;;;;;;;1.77;0.80;;;12.80;99.90;;;;;;4160509;28;20280;-79
2021/10/21 08:43:29;;;;;;;4.30;0.60;;;12.80;99.90;;;;;;4159605;28;20223;-80
2021/10/21 08:45:31;;;;;;;2.87;0.60;;;12.90;99.90;;;;;;4152445;28;20212;-79
2021/10/21 08:47:34;;;;;;;3.77;0.70;;;12.90;99.90;;;;;;4154257;28;20667;-79
2021/10/21 08:49:37;;;;;;;3.43;0.70;;;12.80;99.90;;;;;;4162906;28;20211;-79
2021/10/21 08:51:39;;;;;;;2.00;0.50;;;12.90;99.90;;;;;;4158210;28;20301;-79
2021/10/21 08:53:41;;;;;;;2.73;0.73;;;12.90;99.90;;;;;;4153423;28;20581;-79
2021/10/21 08:55:42;;;;;;;3.90;0.77;;;12.80;99.90;;;;;;4161399;28;20253;-79
2021/10/21 08:57:45;;;;;;;5.90;1.43;;;12.90;99.90;;;;;;4161424;28;20207;-79
2021/10/21 08:59:47;;;;;;;4.40;0.67;;;12.80;99.90;;;;;;4160049;28;20218;-79
2021/10/21 09:01:52;;;;;;;4.77;0.73;;;12.80;99.90;;;;;;4156971;28;20227;-79
2021/10/21 09:03:59;;;;;;;3.23;0.57;;;12.80;99.90;;;;;;4166893;28;20211;-79
2021/10/21 09:06:10;;;;;;;10.40;1.70;;;12.90;99.90;;;;;;4168637;28;20820;-79
2021/10/21 09:08:14;;;;;;;3.33;0.50;;;12.90;99.90;;;;;;4164284;28;20235;-79
2021/10/21 09:10:16;;;;;;;3.13;0.60;;;12.90;99.90;;;;;;4156842;28;20520;-79
2021/10/21 09:12:19;;;;;;;2.93;0.53;;;12.90;99.90;;;;;;4163196;28;20522;-79
2021/10/21 09:14:22;;;;;;;4.47;0.40;;;12.80;99.90;;;;;;4160912;28;20215;-79
2021/10/21 09:16:23;;;;;;;6.57;0.87;;;12.90;99.90;;;;;;4153473;28;20215;-79
2021/10/21 09:18:39;;;;;;;4.70;0.43;;;12.90;99.90;;;;;;4158194;28;20207;-79
2021/10/21 09:20:42;;;;;;;4.37;0.80;;;12.90;99.90;;;;;;4159424;28;20230;-79
2021/10/21 09:22:52;;;;;;;2.30;0.70;;;13.00;99.90;;;;;;4162833;28;20734;-79
2021/10/21 09:24:56;;;;;;;9.20;1.60;;;13.00;99.90;;;;;;4164222;28;20257;-79
2021/10/21 09:27:02;;;;;;;2.17;0.40;;;13.10;99.90;;;;;;4159817;28;20227;-77
2021/10/21 09:29:24;;;;;;;3.27;0.50;;;13.10;99.90;;;;;;4149329;28;20211;-77
2021/10/21 09:31:30;;;;;;;3.17;0.60;;;13.10;99.90;;;;;;4153815;28;20703;-76
2021/10/21 09:33:45;;;;;;;3.50;0.50;;;13.10;99.90;;;;;;4159825;28;20281;-78
2021/10/21 09:35:58;;;;;;;2.40;0.30;;;13.20;99.90;;;;;;4154790;28;20215;-77
2021/10/21 09:38:00;;;;;;;5.03;0.67;;;13.30;99.90;;;;;;4156262;28;20203;-77
2021/10/21 09:40:07;;;;;;;1.40;0.40;;;13.30;99.90;;;;;;4158149;28;20222;-78
2021/10/21 09:42:10;;;;;;;5.53;0.50;;;13.40;99.90;;;;;;4157748;28;20243;-80
2021/10/21 09:44:26;;;;;;;2.97;0.70;;;13.40;99.90;;;;;;4162510;28;20219;-81
2021/10/21 09:46:40;;;;;;;0.87;0.40;;;13.40;99.90;;;;;;4156164;28;20624;-84
2021/10/21 09:48:42;;;;;;;1.03;0.37;;;13.50;99.90;;;;;;4160756;28;20254;-80
2021/10/21 09:50:46;;;;;;;7.50;0.50;;;13.50;99.90;;;;;;4159460;28;20216;-82
2021/10/21 09:53:04;;;;;;;0.20;0.20;;;13.60;99.90;;;;;;4161772;28;20211;-80
2021/10/21 09:55:09;;;;;;;2.93;0.80;;;13.50;99.90;;;;;;4158564;28;20755;-80
2021/10/21 09:57:13;;;;;;;6.33;0.50;;;13.50;99.90;;;;;;4160565;28;20674;-79
2021/10/21 09:59:15;;;;;;;0.50;0.20;;;13.50;99.90;;;;;;4153773;28;20231;-79
2021/10/21 10:01:20;;;;;;;4.80;0.50;;;13.40;99.90;;;;;;4160760;28;20269;-79
2021/10/21 10:03:30;;;;;;;6.93;0.30;;;13.40;99.90;;;;;;4160704;28;20223;-79
2021/10/21 10:05:32;;;;;;;1.60;0.23;;;13.30;99.90;;;;;;4160841;28;20218;-78
2021/10/21 10:07:35;;;;;;;3.77;0.30;;;13.20;99.90;;;;;;4159174;28;20231;-79
2021/10/21 10:09:37;;;;;;;6.23;1.23;;;13.20;99.90;;;;;;4158243;28;20447;-79
2021/10/21 10:11:39;;;;;;;3.10;0.30;;;13.10;99.90;;;;;;4156122;28;20229;-79
2021/10/21 10:13:44;;;;;;;8.50;0.30;;;13.10;99.90;;;;;;4154436;28;20241;-79
2021/10/21 10:15:47;;;;;;;2.90;0.30;;;13.10;99.90;;;;;;4155675;28;20215;-79
2021/10/21 10:17:50;;;;;;;2.70;0.30;;;13.10;99.90;;;;;;4156656;28;20335;-79
2021/10/21 10:19:52;;;;;;;2.43;0.10;;;13.10;99.90;;;;;;4156330;28;20758;-79
2021/10/21 10:21:56;;;;;;;1.37;0.40;;;13.00;99.90;;;;;;4159365;28;20226;-79
2021/10/21 10:24:00;;;;;;;3.07;0.30;;;13.10;99.90;;;;;;4160107;28;20211;-79
2021/10/21 10:26:02;;;;;;;3.87;0.40;;;13.10;99.90;;;;;;4159691;28;20225;-79
2021/10/21 10:28:05;;;;;;;6.77;0.40;;;13.10;99.90;;;;;;4152383;28;20235;-79
2021/10/21 10:30:07;;;;;;;4.33;0.40;;;13.10;99.90;;;;;;4150091;28;20207;-79
2021/10/21 10:32:37;;;;;;;4.63;0.30;;;13.00;99.90;;;;;;4159533;28;20297;-79
2021/10/21 10:34:54;;;;;;;4.43;0.50;;;13.00;99.90;;;;;;4152835;28;20218;-79
2021/10/21 10:36:56;;;;;;;1.30;0.40;;;12.90;99.90;;;;;;4143765;28;20279;-79
2021/10/21 10:38:59;;;;;;;5.73;0.30;;;12.90;99.90;;;;;;4145128;28;20245;-79